Estación de Rauco

Ultimos registro cada 15 minutos 92
Estación Fecha / Hora Temperatura Humedad Lluvia Velocidad Dirección Radiación Presion
92 Rauco 08-05-2026 23:00 10,4 86 0 0 273 0 1020,6
91 Rauco 08-05-2026 22:45 10,4 86 0 0 230 0 1020,6
90 Rauco 08-05-2026 22:30 10,6 86 0 0,4 230 0 1020,5
89 Rauco 08-05-2026 22:15 10,8 85 0 0,4 234 0 1020,8
88 Rauco 08-05-2026 22:00 11,1 84 0 0 216 0 1021
87 Rauco 08-05-2026 21:45 11,3 84 0 0,4 277 0 1020,5
86 Rauco 08-05-2026 21:30 11,4 84 0 0 228 0 1020,5
85 Rauco 08-05-2026 21:15 11,6 84 0 0 151 0 1020,5
84 Rauco 08-05-2026 21:00 11,8 84 0 0,4 251 0 1020,3
83 Rauco 08-05-2026 20:45 11,9 84 0 0,9 251 0 1020,1
82 Rauco 08-05-2026 20:30 11,9 84 0 0,9 234 0 1020,3
81 Rauco 08-05-2026 20:15 11,9 84 0 0,4 246 0 1020,3
80 Rauco 08-05-2026 20:00 11,8 84 0 0,4 249 0 1020,3
79 Rauco 08-05-2026 19:45 11,7 85 0 0 219 0 1019,9
78 Rauco 08-05-2026 19:30 11,7 84 0 0,4 242 0 1019,8
77 Rauco 08-05-2026 19:15 11,8 82 0 0,9 223 0 1019,7
76 Rauco 08-05-2026 19:00 12,3 81 0 0 249 0 1019,5
75 Rauco 08-05-2026 18:45 12,4 80 0 0 248 0 1019,5
74 Rauco 08-05-2026 18:30 12,7 78 0 0 250 0 1019,1
73 Rauco 08-05-2026 18:15 13,2 75 0 0 248 0 1019,4
72 Rauco 08-05-2026 18:00 13,8 73 0 0 248 0 1019,3
71 Rauco 08-05-2026 17:45 14,4 70 0 0 246 5 1019,2
70 Rauco 08-05-2026 17:30 15,3 67 0 0 246 12 1019,3
69 Rauco 08-05-2026 17:15 16 64 0 0,4 250 19 1019,5
68 Rauco 08-05-2026 17:00 16,5 62 0 0 243 37 1019,4
67 Rauco 08-05-2026 16:45 17,2 60 0 0,4 245 62 1019,2
66 Rauco 08-05-2026 16:30 17,7 58 0 0 245 56 1019,3
65 Rauco 08-05-2026 16:15 18,2 58 0 0,4 245 86 1019,2
64 Rauco 08-05-2026 15:45 19,1 58 0 0 245 114 1019,4
63 Rauco 08-05-2026 15:30 19 57 0 0,4 256 448 1019,6
62 Rauco 08-05-2026 15:15 18 58 0 0,9 189 392 1019,7
61 Rauco 08-05-2026 15:00 17,7 59 0 0 188 39 1019,5
60 Rauco 08-05-2026 14:45 17,6 59 0 0,4 186 40 1019,5
59 Rauco 08-05-2026 14:30 17,6 60 0 0,4 284 77 1019,7
58 Rauco 08-05-2026 14:15 17,3 56 0 0,9 228 387 1019,9
57 Rauco 08-05-2026 14:00 17,1 56 0 0,4 232 229 1019,7
56 Rauco 08-05-2026 13:45 16,8 56 0 0 213 114 1019,9
55 Rauco 08-05-2026 13:30 16,3 57 0 0,4 211 162 1020,4
54 Rauco 08-05-2026 13:15 15,9 57 0 0 80 33 1020,5
53 Rauco 08-05-2026 13:00 15,5 55 0 0,4 281 37 1020,7
52 Rauco 08-05-2026 12:45 15,1 53 0 0 284 35 1020,8
51 Rauco 08-05-2026 12:30 14,7 55 0 0,9 286 42 1021
50 Rauco 08-05-2026 12:15 14,3 57 0 0,4 71 40 1021,4
49 Rauco 08-05-2026 12:00 14 62 0 0,9 61 39 1021,1
48 Rauco 08-05-2026 11:45 13,5 66 0 0 7 54 1021,6
47 Rauco 08-05-2026 11:30 12,7 69 0 0,4 355 49 1021,6
46 Rauco 08-05-2026 11:15 12,4 68 0 0 355 44 1021,7
45 Rauco 08-05-2026 11:00 12,6 71 0 1,3 357 343 1022
44 Rauco 08-05-2026 10:45 11,8 72 0 0,9 346 301 1021,9
43 Rauco 08-05-2026 10:30 10,8 74 0 0,9 79 306 1022,1
42 Rauco 08-05-2026 10:15 10,3 77 0 1,3 58 200 1022,5
41 Rauco 08-05-2026 10:00 9,7 78 0 0,9 120 387 1022,5
40 Rauco 08-05-2026 09:45 9 82 0 0 121 348 1022,9
39 Rauco 08-05-2026 09:30 7,9 85 0 0 121 195 1023,1
38 Rauco 08-05-2026 09:15 6,5 88 0 0 121 35 1023,1
37 Rauco 08-05-2026 09:00 5,8 91 0 0 106 130 1023,3
36 Rauco 08-05-2026 08:45 5,4 94 0 0 105 185 1023,1
35 Rauco 08-05-2026 08:30 4,3 94 0 0 105 142 1023
34 Rauco 08-05-2026 08:15 3,5 93 0 0 104 98 1023
33 Rauco 08-05-2026 08:00 2,5 93 0 0 175 35 1022,7
32 Rauco 08-05-2026 07:45 1,5 92 0 0 175 19 1022,8
31 Rauco 08-05-2026 07:30 1,3 91 0 0 175 5 1022,8
30 Rauco 08-05-2026 07:15 1,4 91 0 0 175 0 1023,2
29 Rauco 08-05-2026 07:00 1,8 91 0 0 175 0 1023,2
28 Rauco 08-05-2026 06:45 2,1 92 0 0 175 0 1023,5
27 Rauco 08-05-2026 06:30 2,1 92 0 0 175 0 1023,6
26 Rauco 08-05-2026 06:15 2 91 0 0 175 0 1023,5
25 Rauco 08-05-2026 06:00 1,9 91 0 0 175 0 1023,5
24 Rauco 08-05-2026 05:45 1,8 91 0 0 175 0 1023,7
23 Rauco 08-05-2026 05:30 1,8 90 0 0 175 0 1023,9
22 Rauco 08-05-2026 05:15 2 91 0 0 175 0 1023,9
21 Rauco 08-05-2026 05:00 1,9 91 0 0 175 0 1023,9
20 Rauco 08-05-2026 04:45 1,8 90 0 0 175 0 1023,7
19 Rauco 08-05-2026 04:30 1,9 90 0 0 175 0 1023,6
18 Rauco 08-05-2026 04:15 2 90 0 0 175 0 1023,5
17 Rauco 08-05-2026 04:00 2 89 0 0 175 0 1023,6
16 Rauco 08-05-2026 03:45 2,3 89 0 0 175 0 1023,7
15 Rauco 08-05-2026 03:30 2,5 89 0 0 175 0 1024,2
14 Rauco 08-05-2026 03:15 2,6 88 0 0 175 0 1024,4
13 Rauco 08-05-2026 03:00 2,8 88 0 0 175 0 1024,5
12 Rauco 08-05-2026 02:45 3,2 89 0 0 175 0 1024,4
11 Rauco 08-05-2026 02:30 3,3 88 0 0 175 0 1024,5
10 Rauco 08-05-2026 02:15 3,4 87 0 0 175 0 1024,6
9 Rauco 08-05-2026 02:00 3,7 86 0 0 175 0 1024,7
8 Rauco 08-05-2026 01:45 4,2 86 0 0 175 0 1024,4
7 Rauco 08-05-2026 01:30 4,6 87 0 0 175 0 1024,5
6 Rauco 08-05-2026 01:15 4,8 85 0 0 175 0 1024,9
5 Rauco 08-05-2026 01:00 5,3 83 0 0 175 0 1024,9
4 Rauco 08-05-2026 00:45 6,2 83 0 0 175 0 1025
3 Rauco 08-05-2026 00:30 6,9 81 0 0 175 0 1024,7
2 Rauco 08-05-2026 00:15 7,3 81 0 0 175 0 1025,3
1 Rauco 08-05-2026 00:00 8,1 78 0 0 175 0 1025,2